x

Western Gulf Of Alaska - 175nm Se Of Kodiak, Ak (46001) Wave Buoy

9:50pm - Sat 23rd Sep 2017 All times are AKDT. -8 hours from GMT.

  • Sig Wave height 6.6ft
  • Swell Direction
  • Peak Period 8s
  • Average Period 6s
  • Wind
    22mph, 27mph gusts
  • Sea Temp 53°f
  • Air Temp 51°f
  • Sea Pressure 998.2mb
  • Western Gulf Of Alaska  - 175nm Se Of Kodiak, Ak
  • Western Gulf Of Alaska  - 175nm Se Of Kodiak, Ak

More Historic Weather Station data

Upgrade to MSW Pro to gain access to the past 30 days of data for over 8000 Wavebouys and Weather Stations around the globe.

Join

Comparision Forecast

View Surf forecast
   
Sat 09/23 9:50pm 6.5ft 8s 6s 22 27 mph 998.2mb 53f 51f
8:50pm 7ft 8s 6s 20 27 mph 998mb 53f 52f
7:50pm 7ft 10s 6s 22 29 mph 997.8mb 53f 52f
6:50pm 6ft 9s 6s 18 22 mph 997.7mb 53f 52f
5:50pm 6.5ft 10s 6s 18 22 mph 997.5mb 53f 53f
4:50pm 6.5ft 9s 6s 20 25 mph 997.5mb 53f 53f
3:50pm 7ft 10s 6s 18 22 mph 998mb 53f 53f
2:50pm 6.5ft 7s 6s 18 22 mph 998.4mb 53f 53f
1:50pm 7ft 9s 6s 18 22 mph 998.7mb 53f 53f
12:50pm 7ft 10s 6s 18 22 mph 998.8mb 53f 52f
11:50am 7ft 8s 6s 20 25 mph 999mb 53f 52f
10:50am 7ft 7s 6s 18 22 mph 999.2mb 53f 52f
9:50am 7ft 11s 6s 18 22 mph 999.3mb 53f 52f
8:50am 7ft 10s 6s 16 20 mph 999.3mb 53f 52f
7:50am 7ft 11s 6s 20 22 mph 999.3mb 53f 52f
6:50am 7ft 9s 6s 20 27 mph 999.6mb 53f 53f
5:50am 7.5ft 11s 6s 20 25 mph 1000.1mb 53f 53f
4:50am 7ft 10s 6s 22 27 mph 1000.4mb 53f 53f
3:50am 8ft 10s 6s 25 29 mph 1001.3mb 53f 53f
2:50am 7.5ft 11s 6s 22 27 mph 1002.3mb 53f 52f
1:50am 7ft 11s 6s 22 27 mph 1003.9mb 53f 52f
12:50am 7ft 11s 6s 20 25 mph 1005.2mb 53f 52f
Fri 09/22 11:50pm 7.5ft 11s 6s 18 22 mph 1006mb 53f 52f
10:50pm 7ft 8s 6s 20 25 mph 1006.6mb 53f 51f
9:50pm 7ft 9s 7s 20 22 mph 1007mb 53f 52f
8:50pm 8ft 8s 7s 16 20 mph 1007.7mb 53f 52f
7:50pm 8ft 10s 7s 13 16 mph 1008.3mb 53f 51f
6:50pm 9ft 9s 7s 18 22 mph 1008.8mb 53f 51f
5:50pm 8.5ft 9s 7s 16 18 mph 1009.3mb 53f 51f
4:50pm 9.5ft 10s 7s 13 18 mph 1009.7mb 53f 51f
3:50pm 9ft 11s 7s 18 22 mph 1010mb 53f 51f
2:50pm 8ft 10s 7s 18 22 mph 1010.3mb 53f 51f
1:50pm 8.5ft 10s 7s 20 25 mph 1010.6mb 53f 51f
12:50pm 8ft 9s 7s 18 22 mph 1010.8mb 53f 52f
11:50am 9ft 10s 7s 18 22 mph 1010.9mb 53f 52f
10:50am 8.5ft 8s 6s 16 20 mph 1010.8mb 53f 52f
9:50am 8.5ft 9s 7s 20 22 mph 1010.7mb 53f 52f
8:50am 8.5ft 10s 6s 20 25 mph 1010.5mb 53f 52f
7:50am 8.5ft 8s 6s 20 25 mph 1010.3mb 53f 52f
6:50am 10ft 8s 7s 22 27 mph 1010.2mb 53f 52f
5:50am 9ft 8s 6s 22 29 mph 1010.1mb 53f 52f
4:50am 8.5ft 8s  -  22 29 mph 1010mb 53f 51f
3:50am 8.5ft 8s 6s 25 29 mph 1009.9mb 53f 51f
2:50am 8.5ft 8s 6s 22 27 mph 1010mb 53f 51f
1:50am 7ft 8s 6s 22 29 mph 1009.8mb 53f 51f
12:50am 8ft 8s 6s 25 27 mph 1009.7mb 53f 51f
Thu 09/21 11:50pm 7ft 8s 6s 25 29 mph 1009.5mb 53f 52f
10:50pm 7ft 8s 6s 25 29 mph 1009.1mb 53f 53f
9:50pm 7ft 8s 6s 20 25 mph 1009.3mb 53f 53f
8:50pm 7.5ft 8s 6s 22 27 mph 1008.8mb 53f 53f
7:50pm 7ft 7s 6s 22 27 mph 1008.9mb 53f 53f
6:50pm 7ft 8s 6s 22 27 mph 1008.7mb 53f 53f
5:50pm 8ft 8s 6s 22 27 mph 1008.7mb 53f 53f
4:50pm 8ft 7s  -  22 29 mph 1008.8mb 53f 53f
3:50pm 8ft 7s 6s 25 29 mph 1008.9mb 53f 53f
2:50pm 7.5ft 8s 6s 22 27 mph 1008.9mb 53f 54f
1:50pm 8ft 8s 6s 22 25 mph 1009.1mb 53f 54f
12:50pm 8ft 8s 6s 22 27 mph 1009.1mb 53f 54f
11:50am 8ft 8s 6s 22 27 mph 1009.5mb 53f 54f
10:50am 7.5ft 7s 6s 25 29 mph 1009.9mb 53f 54f
9:50am 7ft 7s 5s 25 29 mph 1009.9mb 53f 54f
8:50am 7ft 7s 5s 25 29 mph 1010.3mb 53f 54f
7:50am 6ft 6s 5s 25 29 mph 1010.9mb 53f 54f
6:50am 6ft 6s 5s 25 29 mph 1011.2mb 53f 54f
5:50am 6ft 6s 5s 22 27 mph 1012.5mb 53f 53f
4:50am 5ft 5s 5s 27 31 mph 1013.3mb 53f 53f
3:50am 6ft 5s 5s 27 31 mph 1014.7mb 53f 51f
2:50am 5ft 4s 4s 27 29 mph 1016.3mb 53f 51f
1:50am 4.5ft 5s 5s 25 27 mph 1017.9mb 53f 50f
12:50am 4.5ft 6s 5s 22 27 mph 1018.9mb 53f 50f
Wed 09/20 11:50pm 4ft 6s 5s 20 25 mph 1019.7mb 53f 50f
10:50pm 4ft 6s 5s 13 16 mph 1021mb 53f 51f
9:50pm 4.5ft 6s 5s 11 13 mph 1022.1mb 53f 49f
8:50pm 4.5ft 6s 5s 16 18 mph 1022.6mb 53f 49f
7:50pm 4ft 6s 5s 13 16 mph 1022.6mb 53f 51f
6:50pm 4ft 6s 5s 16 18 mph 1022.9mb 53f 51f
5:50pm 4.5ft 6s 5s 16 18 mph 1022.6mb 53f 52f
4:50pm 4.5ft 6s 5s 16 18 mph 1022.5mb 53f 52f
3:50pm 4.5ft 7s 5s 18 20 mph 1022.9mb 53f 52f
2:50pm 4.5ft 7s 5s 20 22 mph 1022.8mb 53f 52f
1:50pm 5ft 7s 5s 18 22 mph 1022.8mb 53f 52f
12:50pm 4.5ft 7s 5s 16 20 mph 1023mb 53f 52f
11:50am 5ft 7s 6s 16 18 mph 1022.9mb 53f 52f
10:50am 5ft 8s 6s 13 16 mph 1023.1mb 53f 52f
9:50am 4.5ft 8s 6s 13 18 mph 1023.2mb 53f 51f
8:50am 5ft 7s 6s 11 13 mph 1023.1mb 53f 51f
7:50am 5ft 7s 6s 11 13 mph 1023mb 53f 51f